Time;durP1;ratioP1;P1;durP2;ratioP2;P2;SDS_P1;SDS_P2;PMS_P1;PMS_P2;Temp;Humidity;BMP_temperature;BMP_pressure;BME280_temperature;BME280_humidity;BME280_pressure;Samples;Min_cycle;Max_cycle;Signal;HPM_P1;HPM_P2
2023/02/28 00:00:18;;;;;;;5.32;3.95;;;0.70;74.60;;;;;;5013797;28;20414;-59
2023/02/28 00:02:44;;;;;;;6.20;3.70;;;0.70;74.60;;;;;;5012948;28;20061;-59
2023/02/28 00:05:12;;;;;;;5.80;3.88;;;0.60;74.60;;;;;;5013661;28;21355;-59
2023/02/28 00:07:38;;;;;;;6.40;4.00;;;0.60;74.60;;;;;;5013212;28;20049;-59
2023/02/28 00:10:07;;;;;;;5.30;3.70;;;0.70;74.60;;;;;;5013738;28;20033;-59
2023/02/28 00:12:36;;;;;;;8.95;4.05;;;0.60;74.60;;;;;;5017094;28;20069;-59
2023/02/28 00:15:05;;;;;;;9.07;3.58;;;0.60;74.60;;;;;;5016685;28;20406;-58
2023/02/28 00:17:31;;;;;;;6.40;3.95;;;0.60;74.80;;;;;;5017298;28;20037;-58
2023/02/28 00:19:56;;;;;;;7.30;4.00;;;0.60;74.80;;;;;;5015797;28;20188;-60
2023/02/28 00:22:22;;;;;;;5.68;3.88;;;0.60;74.80;;;;;;5016360;28;20142;-58
2023/02/28 00:24:48;;;;;;;6.50;3.50;;;0.60;75.10;;;;;;5015540;28;20152;-57
2023/02/28 00:27:14;;;;;;;5.13;3.90;;;0.60;75.20;;;;;;5017256;28;20037;-57
2023/02/28 00:29:40;;;;;;;5.15;3.58;;;0.50;75.20;;;;;;5014431;28;20109;-57
2023/02/28 00:32:06;;;;;;;5.70;3.38;;;0.50;75.20;;;;;;5015954;28;20042;-59
2023/02/28 00:34:37;;;;;;;3.80;3.25;;;0.50;75.20;;;;;;5014952;28;20040;-56
2023/02/28 00:37:06;;;;;;;7.25;3.70;;;0.60;75.30;;;;;;5014464;28;20048;-56
2023/02/28 00:39:34;;;;;;;6.28;3.60;;;0.50;75.30;;;;;;5014130;28;20059;-58
2023/02/28 00:42:00;;;;;;;5.50;3.70;;;0.50;75.40;;;;;;5010796;28;20049;-58
2023/02/28 00:44:25;;;;;;;4.93;3.40;;;0.50;75.40;;;;;;5012024;28;20042;-57
2023/02/28 00:46:51;;;;;;;6.53;3.70;;;0.50;75.50;;;;;;5011729;28;20243;-57
2023/02/28 00:49:17;;;;;;;7.28;3.60;;;0.50;76.40;;;;;;5016045;28;20079;-59
2023/02/28 00:51:43;;;;;;;6.13;3.50;;;0.50;75.40;;;;;;5018217;28;20045;-58
2023/02/28 00:54:08;;;;;;;5.25;3.58;;;0.50;75.50;;;;;;5018971;28;20518;-57
2023/02/28 00:56:34;;;;;;;5.78;3.45;;;0.50;75.50;;;;;;5016926;28;20030;-58
2023/02/28 00:58:59;;;;;;;5.07;3.70;;;0.50;75.50;;;;;;5017307;28;20083;-60
2023/02/28 01:01:25;;;;;;;5.38;3.53;;;0.50;75.50;;;;;;5016940;28;20134;-60
2023/02/28 01:03:51;;;;;;;6.75;3.80;;;0.50;75.70;;;;;;5017268;28;20033;-58
2023/02/28 01:06:16;;;;;;;5.10;3.58;;;0.50;75.60;;;;;;5016179;28;20094;-60
2023/02/28 01:08:42;;;;;;;6.10;3.33;;;0.50;75.50;;;;;;5017239;28;20068;-58
2023/02/28 01:11:12;;;;;;;5.05;3.35;;;0.50;75.50;;;;;;5019365;28;20038;-59
2023/02/28 01:13:38;;;;;;;4.90;3.30;;;0.50;75.60;;;;;;5019838;28;20057;-59
2023/02/28 01:16:04;;;;;;;5.18;3.28;;;0.50;75.50;;;;;;5019430;28;20072;-60
2023/02/28 01:18:30;;;;;;;6.80;4.00;;;0.50;75.50;;;;;;5019796;28;20026;-58
2023/02/28 01:20:56;;;;;;;5.10;3.58;;;0.50;75.40;;;;;;5018650;28;20038;-59
2023/02/28 01:23:23;;;;;;;7.10;3.63;;;0.50;75.40;;;;;;5019305;28;20048;-57
2023/02/28 01:25:52;;;;;;;5.05;3.17;;;0.50;75.30;;;;;;5019759;28;20071;-56
2023/02/28 01:28:17;;;;;;;5.55;3.33;;;0.50;75.30;;;;;;5019437;28;20037;-57
2023/02/28 01:30:47;;;;;;;5.85;3.70;;;0.50;75.30;;;;;;5018622;28;20448;-58
2023/02/28 01:33:12;;;;;;;3.80;2.97;;;0.50;75.20;;;;;;5018316;28;20413;-60
2023/02/28 01:35:38;;;;;;;6.57;3.50;;;0.50;76.00;;;;;;5017046;28;20551;-60
2023/02/28 01:38:03;;;;;;;4.85;3.58;;;0.50;75.20;;;;;;5017082;28;20543;-60
2023/02/28 01:40:29;;;;;;;7.78;4.00;;;0.50;75.10;;;;;;5015343;28;20068;-60
2023/02/28 01:42:54;;;;;;;5.60;3.30;;;0.50;75.00;;;;;;5014410;28;20041;-59
2023/02/28 01:45:29;;;;;;;4.78;3.28;;;0.50;75.00;;;;;;5016206;28;20124;-60
2023/02/28 01:48:03;;;;;;;5.78;3.05;;;0.50;75.00;;;;;;5015665;28;20428;-59
2023/02/28 01:50:33;;;;;;;3.97;3.28;;;0.50;74.90;;;;;;5014513;28;20122;-59
2023/02/28 01:53:01;;;;;;;4.95;3.10;;;0.50;74.80;;;;;;5014807;28;20041;-59
2023/02/28 01:55:28;;;;;;;5.22;3.17;;;0.50;74.80;;;;;;5016269;28;20395;-56
2023/02/28 01:57:59;;;;;;;8.85;3.42;;;0.50;74.70;;;;;;5016618;28;20069;-59
2023/02/28 02:00:26;;;;;;;3.70;3.05;;;0.50;74.60;;;;;;5015866;28;20059;-59
2023/02/28 02:02:56;;;;;;;4.70;3.10;;;0.50;74.50;;;;;;5022975;28;20030;-59
2023/02/28 02:05:28;;;;;;;3.97;3.08;;;0.50;74.50;;;;;;5017383;28;20297;-58
2023/02/28 02:08:16;;;;;;;4.50;3.17;;;0.50;74.50;;;;;;5014399;28;20077;-61
2023/02/28 02:10:53;;;;;;;5.25;3.20;;;0.50;74.50;;;;;;5018673;28;20037;-56
2023/02/28 02:13:52;;;;;;;5.15;3.22;;;0.40;74.40;;;;;;5017165;28;20539;-59
2023/02/28 02:16:30;;;;;;;5.70;3.60;;;0.50;74.50;;;;;;5018530;28;20068;-60
2023/02/28 02:19:10;;;;;;;5.95;3.65;;;0.50;74.50;;;;;;5018086;28;20049;-59
2023/02/28 02:21:57;;;;;;;5.90;3.60;;;0.40;74.30;;;;;;5018793;28;20406;-59
2023/02/28 02:24:35;;;;;;;6.03;3.22;;;0.40;74.30;;;;;;5018138;28;20401;-59
2023/02/28 02:27:38;;;;;;;5.05;3.33;;;0.40;74.30;;;;;;5017703;28;20049;-59
2023/02/28 02:30:07;;;;;;;6.93;3.42;;;0.40;74.30;;;;;;5019021;28;20038;-58
2023/02/28 02:33:00;;;;;;;5.95;3.72;;;0.40;74.30;;;;;;5016639;28;20033;-57
2023/02/28 02:35:46;;;;;;;6.38;3.40;;;0.40;75.20;;;;;;5016520;28;20042;-57
2023/02/28 02:38:38;;;;;;;5.15;3.20;;;0.40;75.20;;;;;;5016338;28;20113;-60
2023/02/28 02:41:16;;;;;;;5.95;3.42;;;0.40;74.50;;;;;;5011491;28;20038;-59
2023/02/28 02:43:44;;;;;;;4.30;3.40;;;0.40;74.40;;;;;;5015276;28;20087;-58
2023/02/28 02:46:34;;;;;;;6.93;3.50;;;0.40;74.30;;;;;;5014542;28;20341;-59
2023/02/28 02:49:04;;;;;;;6.03;3.30;;;0.40;74.30;;;;;;5008013;28;20065;-55
2023/02/28 02:51:32;;;;;;;6.10;3.70;;;0.40;74.30;;;;;;5014192;28;20034;-60
2023/02/28 02:54:07;;;;;;;6.65;3.97;;;0.40;74.40;;;;;;5014717;28;20030;-56
2023/02/28 02:56:34;;;;;;;4.65;3.35;;;0.40;74.30;;;;;;5015259;28;20566;-59
2023/02/28 02:59:06;;;;;;;5.10;3.53;;;0.40;74.40;;;;;;5014347;28;20615;-59
2023/02/28 03:01:34;;;;;;;5.30;3.60;;;0.40;74.40;;;;;;5014573;28;20474;-60
2023/02/28 03:04:07;;;;;;;5.38;3.50;;;0.40;74.40;;;;;;5014678;28;20034;-59
2023/02/28 03:06:33;;;;;;;6.10;3.83;;;0.40;74.40;;;;;;5014326;28;20272;-58
2023/02/28 03:09:00;;;;;;;5.07;3.75;;;0.40;74.50;;;;;;5016056;28;20393;-59
2023/02/28 03:11:26;;;;;;;5.97;3.55;;;0.40;74.50;;;;;;5019385;28;20033;-60
2023/02/28 03:14:22;;;;;;;5.90;3.80;;;0.40;74.30;;;;;;5017220;28;20044;-60
2023/02/28 03:17:14;;;;;;;6.15;4.13;;;0.40;74.40;;;;;;5014766;28;20043;-58
2023/02/28 03:19:58;;;;;;;5.22;3.58;;;0.40;74.30;;;;;;5017210;28;20390;-59
2023/02/28 03:22:53;;;;;;;5.82;3.85;;;0.40;74.30;;;;;;5018020;28;20045;-59
2023/02/28 03:25:28;;;;;;;5.38;3.70;;;0.40;74.30;;;;;;5016789;28;20034;-60
2023/02/28 03:27:56;;;;;;;;;;;0.40;74.30;;;;;;5017927;28;20409;-58
2023/02/28 03:30:31;;;;;;;6.78;3.72;;;0.40;74.40;;;;;;5017492;28;19917;-59
2023/02/28 03:33:19;;;;;;;4.53;3.72;;;0.40;74.20;;;;;;5015129;28;20034;-57
2023/02/28 03:35:54;;;;;;;5.35;3.53;;;0.40;74.20;;;;;;5012347;28;20077;-56
2023/02/28 03:38:26;;;;;;;5.25;3.25;;;0.40;74.30;;;;;;5015379;28;20040;-59
2023/02/28 03:41:01;;;;;;;6.03;3.92;;;0.50;74.30;;;;;;5011524;28;20765;-60
2023/02/28 03:43:33;;;;;;;6.15;3.75;;;0.40;74.30;;;;;;5014555;28;20037;-60
2023/02/28 03:46:02;;;;;;;6.18;3.67;;;0.40;74.30;;;;;;5013290;28;20544;-60
2023/02/28 03:48:48;;;;;;;4.50;3.53;;;0.40;74.30;;;;;;5014619;28;20045;-58
2023/02/28 03:51:17;;;;;;;;;;;0.40;74.40;;;;;;5015480;28;20033;-60
2023/02/28 03:53:51;;;;;;;7.05;3.90;;;0.40;74.50;;;;;;5014217;28;19917;-56
2023/02/28 03:56:42;;;;;;;4.93;3.58;;;0.40;74.20;;;;;;5012780;28;20034;-56
2023/02/28 03:59:28;;;;;;;6.00;4.07;;;0.40;74.20;;;;;;5000419;28;20034;-58
2023/02/28 04:01:55;;;;;;;5.53;4.00;;;0.40;75.20;;;;;;5014712;28;20039;-58
2023/02/28 04:04:21;;;;;;;5.93;3.92;;;0.40;74.30;;;;;;5014059;28;20059;-58
2023/02/28 04:07:00;;;;;;;6.00;3.90;;;0.40;74.30;;;;;;5010777;28;20499;-57
2023/02/28 04:09:25;;;;;;;5.65;3.97;;;0.40;74.30;;;;;;5015008;28;20096;-59
2023/02/28 04:11:52;;;;;;;5.75;4.10;;;0.40;74.30;;;;;;5012566;28;20474;-56
2023/02/28 04:14:18;;;;;;;5.85;4.13;;;0.40;74.40;;;;;;5014903;28;20651;-57
2023/02/28 04:16:45;;;;;;;6.68;3.95;;;0.40;75.20;;;;;;5013827;28;20042;-59
2023/02/28 04:19:12;;;;;;;7.75;3.92;;;0.40;74.30;;;;;;5013740;28;20037;-59
2023/02/28 04:21:40;;;;;;;6.13;4.10;;;0.40;74.10;;;;;;5012538;28;20033;-59
2023/02/28 04:24:07;;;;;;;6.65;4.35;;;0.50;74.10;;;;;;5012630;28;20033;-59
2023/02/28 04:26:35;;;;;;;6.13;3.80;;;0.50;74.00;;;;;;5012366;28;20032;-58
2023/02/28 04:29:02;;;;;;;5.22;3.67;;;0.50;74.00;;;;;;5014509;28;20033;-59
2023/02/28 04:31:28;;;;;;;7.57;4.47;;;0.50;74.00;;;;;;5013595;28;20037;-59
2023/02/28 04:33:53;;;;;;;5.75;4.20;;;0.50;74.10;;;;;;5014296;28;20382;-57
2023/02/28 04:36:19;;;;;;;6.93;4.28;;;0.50;74.10;;;;;;5015959;28;20022;-57
2023/02/28 04:38:45;;;;;;;7.82;4.35;;;0.60;74.10;;;;;;5015639;28;20041;-60
2023/02/28 04:41:12;;;;;;;6.85;4.38;;;0.60;74.00;;;;;;5012014;28;20531;-58
2023/02/28 04:43:38;;;;;;;6.68;4.40;;;0.60;74.00;;;;;;5011204;28;20073;-57
2023/02/28 04:46:05;;;;;;;7.05;4.45;;;0.60;73.90;;;;;;5012190;28;20247;-60
2023/02/28 04:48:33;;;;;;;6.93;4.60;;;0.60;73.80;;;;;;5013317;28;20599;-59
2023/02/28 04:51:08;;;;;;;5.68;4.25;;;0.60;73.80;;;;;;5012554;28;20034;-58
2023/02/28 04:53:34;;;;;;;8.15;4.80;;;0.70;73.80;;;;;;5013797;28;20033;-58
2023/02/28 04:56:00;;;;;;;7.45;4.82;;;0.70;73.60;;;;;;5012961;28;20030;-60
2023/02/28 04:58:26;;;;;;;8.32;4.65;;;0.70;73.60;;;;;;5014820;28;20084;-58
2023/02/28 05:00:53;;;;;;;9.00;4.63;;;0.70;73.60;;;;;;5015461;28;20490;-59
2023/02/28 05:03:20;;;;;;;7.70;5.07;;;0.70;73.50;;;;;;5015959;28;20076;-59
2023/02/28 05:05:46;;;;;;;7.13;4.60;;;0.70;73.40;;;;;;5023254;28;20069;-59
2023/02/28 05:08:12;;;;;;;6.50;4.97;;;0.70;73.30;;;;;;5015828;28;20064;-60
2023/02/28 05:10:37;;;;;;;7.65;4.88;;;0.70;73.30;;;;;;5011718;28;20026;-59
2023/02/28 05:13:03;;;;;;;7.00;4.95;;;0.70;73.30;;;;;;5011670;28;20293;-60
2023/02/28 05:15:28;;;;;;;7.05;4.88;;;0.70;73.40;;;;;;5011345;28;20089;-59
2023/02/28 05:17:54;;;;;;;6.57;5.10;;;0.70;73.30;;;;;;5013275;28;20038;-58
2023/02/28 05:20:20;;;;;;;9.48;5.32;;;0.70;73.30;;;;;;5013569;28;20577;-59
2023/02/28 05:22:47;;;;;;;9.55;4.72;;;0.70;73.40;;;;;;5012955;28;20100;-58
2023/02/28 05:25:17;;;;;;;7.05;5.10;;;0.70;73.30;;;;;;5010809;28;20065;-59
2023/02/28 05:27:43;;;;;;;7.90;5.28;;;0.70;73.30;;;;;;5008845;28;20042;-58
2023/02/28 05:30:12;;;;;;;8.60;5.35;;;0.70;73.30;;;;;;5013571;28;20073;-60
2023/02/28 05:32:42;;;;;;;9.88;5.50;;;0.70;73.30;;;;;;5014973;28;20038;-59
2023/02/28 05:35:09;;;;;;;8.57;5.30;;;0.60;73.30;;;;;;5019320;28;20034;-60
2023/02/28 05:37:35;;;;;;;9.20;5.30;;;0.60;73.40;;;;;;5019390;28;20034;-58
2023/02/28 05:40:01;;;;;;;8.45;5.80;;;0.70;73.50;;;;;;5019244;28;20092;-60
2023/02/28 05:42:28;;;;;;;7.93;5.47;;;0.70;73.60;;;;;;5015967;28;20079;-60
2023/02/28 05:44:53;;;;;;;7.25;5.35;;;0.60;73.50;;;;;;5018817;28;20517;-59
2023/02/28 05:47:19;;;;;;;9.35;5.50;;;0.70;73.40;;;;;;5018813;28;20077;-60
2023/02/28 05:49:44;;;;;;;10.07;5.22;;;0.70;73.40;;;;;;5019302;28;20068;-59
2023/02/28 05:52:10;;;;;;;8.32;6.22;;;0.60;73.30;;;;;;5019147;28;20057;-60
2023/02/28 05:54:36;;;;;;;9.48;5.90;;;0.70;73.30;;;;;;5019283;28;20033;-60
2023/02/28 05:57:01;;;;;;;9.48;6.35;;;0.70;73.40;;;;;;5018947;28;20033;-58
2023/02/28 05:59:27;;;;;;;11.35;6.00;;;0.70;73.40;;;;;;5019274;28;20034;-59
2023/02/28 06:01:52;;;;;;;9.93;6.20;;;0.70;73.40;;;;;;5019044;28;20246;-58
2023/02/28 06:04:20;;;;;;;8.95;6.20;;;0.70;73.30;;;;;;5019067;28;20041;-59
2023/02/28 06:06:47;;;;;;;10.30;6.00;;;0.70;73.30;;;;;;5018483;28;20044;-60
2023/02/28 06:09:13;;;;;;;8.20;5.70;;;0.70;73.30;;;;;;5018963;28;20026;-60
2023/02/28 06:11:39;;;;;;;8.48;6.03;;;0.70;73.30;;;;;;5020899;28;20324;-60
2023/02/28 06:14:04;;;;;;;10.80;6.57;;;0.70;73.30;;;;;;5019284;28;20040;-60
2023/02/28 06:16:32;;;;;;;10.05;6.28;;;0.70;73.40;;;;;;5018918;28;20113;-59
2023/02/28 06:18:58;;;;;;;11.93;6.40;;;0.70;73.40;;;;;;5019396;28;20034;-59
2023/02/28 06:21:24;;;;;;;11.02;6.30;;;0.70;73.50;;;;;;5019009;28;20018;-58
2023/02/28 06:23:50;;;;;;;9.43;6.20;;;0.70;73.40;;;;;;5018466;28;20033;-59
2023/02/28 06:26:16;;;;;;;11.50;7.05;;;0.70;73.30;;;;;;5018081;28;20021;-58
2023/02/28 06:28:42;;;;;;;10.52;6.95;;;0.80;73.40;;;;;;5017785;28;20057;-59
2023/02/28 06:31:09;;;;;;;11.80;7.18;;;0.70;73.20;;;;;;5018426;28;20072;-58
2023/02/28 06:33:36;;;;;;;13.32;7.10;;;0.70;73.30;;;;;;5018293;28;20524;-59
2023/02/28 06:36:02;;;;;;;12.15;6.95;;;0.80;73.40;;;;;;5018457;28;20068;-56
2023/02/28 06:38:27;;;;;;;10.07;6.47;;;0.80;73.40;;;;;;5017559;28;20033;-58
2023/02/28 06:40:55;;;;;;;10.15;7.00;;;0.80;73.40;;;;;;5014784;28;20033;-58
2023/02/28 06:43:21;;;;;;;11.80;7.57;;;0.80;73.40;;;;;;5017304;28;20248;-58
2023/02/28 06:45:47;;;;;;;9.55;6.68;;;0.80;73.40;;;;;;5017196;28;20041;-58
2023/02/28 06:48:12;;;;;;;12.00;7.28;;;0.80;73.40;;;;;;5017578;28;20042;-59
2023/02/28 06:50:38;;;;;;;13.25;7.75;;;0.80;73.40;;;;;;5017857;28;20026;-58
2023/02/28 06:53:04;;;;;;;12.02;7.30;;;0.80;73.40;;;;;;5017883;28;20033;-58
2023/02/28 06:55:29;;;;;;;11.43;7.72;;;0.80;73.40;;;;;;5017777;28;20033;-59
2023/02/28 06:57:55;;;;;;;10.30;7.30;;;0.80;73.50;;;;;;5018327;28;20045;-58
2023/02/28 07:00:21;;;;;;;11.93;7.43;;;0.80;73.40;;;;;;5018079;28;20517;-58
2023/02/28 07:02:47;;;;;;;12.77;7.47;;;0.80;73.30;;;;;;5016420;28;20041;-59
2023/02/28 07:05:13;;;;;;;11.80;7.30;;;0.80;73.40;;;;;;5017608;28;20049;-60
2023/02/28 07:07:43;;;;;;;12.55;7.80;;;0.80;73.40;;;;;;5017399;28;20042;-60
2023/02/28 07:10:12;;;;;;;10.32;7.28;;;0.90;73.40;;;;;;5018111;28;20032;-60
2023/02/28 07:12:38;;;;;;;11.23;7.47;;;0.90;73.40;;;;;;5018040;28;20553;-59
2023/02/28 07:15:05;;;;;;;12.93;7.55;;;0.80;73.40;;;;;;5017779;28;20124;-59
2023/02/28 07:17:31;;;;;;;13.20;7.88;;;0.90;73.50;;;;;;5017544;28;20033;-59
2023/02/28 07:19:56;;;;;;;11.32;8.07;;;0.90;73.60;;;;;;5017793;28;20492;-59
2023/02/28 07:22:22;;;;;;;14.05;8.38;;;0.80;73.50;;;;;;5017624;28;20041;-58
2023/02/28 07:24:48;;;;;;;12.32;8.30;;;0.90;73.60;;;;;;5017085;28;20033;-60
2023/02/28 07:27:23;;;;;;;10.93;7.75;;;0.90;73.60;;;;;;5017178;28;20048;-59
2023/02/28 07:29:52;;;;;;;14.13;7.80;;;0.90;73.60;;;;;;5017064;28;20030;-60
2023/02/28 07:32:18;;;;;;;12.52;8.00;;;0.90;73.60;;;;;;5017170;28;20033;-61
2023/02/28 07:34:44;;;;;;;14.30;8.82;;;0.90;73.40;;;;;;5015710;28;20041;-59
2023/02/28 07:37:10;;;;;;;16.13;8.63;;;0.90;73.40;;;;;;5017296;28;20083;-58
2023/02/28 07:39:36;;;;;;;13.00;8.13;;;0.90;73.50;;;;;;5017511;28;20034;-59
2023/02/28 07:42:05;;;;;;;13.75;8.75;;;0.90;73.40;;;;;;5014523;28;20034;-59
2023/02/28 07:44:31;;;;;;;13.60;8.98;;;0.90;73.40;;;;;;5016444;28;20046;-58
2023/02/28 07:46:58;;;;;;;14.90;8.88;;;1.00;73.40;;;;;;5016884;28;20041;-60
2023/02/28 07:49:23;;;;;;;14.95;9.20;;;1.00;73.30;;;;;;5017249;28;20091;-59
2023/02/28 07:51:49;;;;;;;14.57;9.80;;;1.00;73.30;;;;;;5016945;28;20026;-59
2023/02/28 07:54:14;;;;;;;14.57;9.75;;;1.00;73.40;;;;;;5017270;28;20075;-58
2023/02/28 07:56:40;;;;;;;13.45;9.13;;;1.00;73.40;;;;;;5016660;28;20030;-60
2023/02/28 07:59:05;;;;;;;15.27;8.95;;;1.00;73.30;;;;;;5017159;28;20064;-55
2023/02/28 08:01:31;;;;;;;14.90;9.63;;;1.00;73.30;;;;;;5016800;28;20034;-59
2023/02/28 08:03:57;;;;;;;13.35;9.02;;;1.00;73.20;;;;;;5016089;28;20147;-58
2023/02/28 08:06:24;;;;;;;14.52;8.98;;;1.00;73.20;;;;;;5016958;28;20110;-59
2023/02/28 08:08:50;;;;;;;17.27;9.75;;;1.00;73.30;;;;;;5015771;28;20409;-58
2023/02/28 08:11:17;;;;;;;14.70;9.07;;;1.00;73.40;;;;;;5018862;28;20034;-57
2023/02/28 08:13:43;;;;;;;16.10;9.07;;;1.00;73.30;;;;;;5016573;28;20211;-58
2023/02/28 08:16:10;;;;;;;14.57;9.40;;;1.00;73.30;;;;;;5017483;28;20034;-59
2023/02/28 08:18:36;;;;;;;14.13;9.10;;;1.10;73.40;;;;;;5016693;28;20026;-55
2023/02/28 08:21:11;;;;;;;16.98;9.52;;;1.00;73.30;;;;;;5016754;28;20064;-58
2023/02/28 08:23:36;;;;;;;14.18;9.30;;;1.10;73.40;;;;;;5016310;28;20030;-58
2023/02/28 08:26:03;;;;;;;15.88;9.98;;;1.10;73.30;;;;;;5015514;28;20378;-59
2023/02/28 08:28:28;;;;;;;15.35;10.13;;;1.10;73.30;;;;;;5016136;28;20196;-56
2023/02/28 08:30:55;;;;;;;16.08;10.65;;;1.10;73.20;;;;;;5017076;28;20519;-59
2023/02/28 08:33:21;;;;;;;17.30;11.02;;;1.10;73.30;;;;;;5016948;28;20040;-60
2023/02/28 08:35:46;;;;;;;14.68;10.43;;;1.10;73.20;;;;;;5017053;28;20082;-59
2023/02/28 08:38:12;;;;;;;16.65;10.07;;;1.10;74.00;;;;;;5017497;28;20026;-60
2023/02/28 08:40:37;;;;;;;16.23;10.27;;;1.10;73.10;;;;;;5013916;28;20516;-60
2023/02/28 08:43:03;;;;;;;15.50;10.65;;;1.10;73.90;;;;;;5015277;28;20038;-59
2023/02/28 08:45:28;;;;;;;17.42;10.77;;;1.10;73.00;;;;;;5016471;28;20034;-60
2023/02/28 08:47:55;;;;;;;16.35;10.40;;;1.10;73.10;;;;;;5015664;28;20042;-59
2023/02/28 08:50:21;;;;;;;16.38;10.32;;;1.10;73.20;;;;;;5016548;28;20029;-59
2023/02/28 08:52:47;;;;;;;15.43;10.35;;;1.10;73.30;;;;;;5015434;28;20037;-58
2023/02/28 08:55:12;;;;;;;13.95;9.55;;;1.10;73.40;;;;;;5016481;28;20567;-59
2023/02/28 08:57:38;;;;;;;16.00;10.50;;;1.10;73.30;;;;;;5016195;28;20034;-60
2023/02/28 09:00:04;;;;;;;20.77;10.77;;;1.10;73.30;;;;;;5015329;28;20038;-57
2023/02/28 09:02:31;;;;;;;18.80;11.15;;;1.20;73.30;;;;;;5010160;28;20547;-58
2023/02/28 09:04:57;;;;;;;17.23;10.93;;;1.20;73.30;;;;;;5017014;28;20159;-58
2023/02/28 09:07:23;;;;;;;19.23;11.57;;;1.20;73.30;;;;;;5016348;28;20556;-58
2023/02/28 09:09:55;;;;;;;17.05;11.25;;;1.30;73.30;;;;;;5021341;28;20122;-58
2023/02/28 09:12:22;;;;;;;20.73;10.77;;;1.20;73.20;;;;;;5019316;28;20032;-58
2023/02/28 09:14:47;;;;;;;15.73;10.88;;;1.30;73.10;;;;;;5020511;28;20430;-58
2023/02/28 09:17:13;;;;;;;17.50;11.07;;;1.30;73.10;;;;;;5019846;28;20088;-57
2023/02/28 09:19:38;;;;;;;16.88;10.73;;;1.30;73.00;;;;;;5020844;28;20218;-58
2023/02/28 09:22:04;;;;;;;16.83;11.38;;;1.30;72.90;;;;;;5019614;28;20084;-59
2023/02/28 09:24:31;;;;;;;17.98;10.70;;;1.30;72.80;;;;;;5020387;28;20165;-60
2023/02/28 09:26:57;;;;;;;18.15;10.88;;;1.30;72.80;;;;;;5019722;28;20064;-58
2023/02/28 09:29:23;;;;;;;18.08;11.63;;;1.30;72.80;;;;;;5019913;28;20226;-59
2023/02/28 09:31:49;;;;;;;18.30;11.75;;;1.30;72.90;;;;;;5019530;28;20030;-59
2023/02/28 09:34:15;;;;;;;17.88;11.30;;;1.30;72.90;;;;;;5019386;28;20429;-58
2023/02/28 09:36:41;;;;;;;17.98;11.25;;;1.30;73.10;;;;;;5018121;28;20117;-56
2023/02/28 09:39:07;;;;;;;15.43;10.70;;;1.30;73.10;;;;;;5020102;28;20034;-59
2023/02/28 09:41:45;;;;;;;18.13;11.25;;;1.30;73.10;;;;;;5017928;28;20482;-59
2023/02/28 09:44:17;;;;;;;17.50;11.20;;;1.40;73.00;;;;;;5019773;28;20030;-59
2023/02/28 09:46:47;;;;;;;17.77;11.63;;;1.40;73.80;;;;;;5019978;28;20033;-60
2023/02/28 09:49:16;;;;;;;17.85;12.10;;;1.40;73.00;;;;;;5019992;28;20029;-58
2023/02/28 09:51:44;;;;;;;18.60;11.65;;;1.40;73.10;;;;;;5019998;28;20377;-57
2023/02/28 09:54:22;;;;;;;19.00;11.80;;;1.40;73.10;;;;;;5019785;28;20057;-58
2023/02/28 09:56:57;;;;;;;17.23;11.35;;;1.40;73.10;;;;;;5019110;28;20075;-59
2023/02/28 09:59:51;;;;;;;15.60;10.82;;;1.50;73.30;;;;;;5019139;28;20037;-60
2023/02/28 10:02:35;;;;;;;19.40;11.57;;;1.60;73.30;;;;;;5019010;28;20030;-59
2023/02/28 10:05:11;;;;;;;20.45;10.88;;;1.60;73.30;;;;;;5019363;28;20367;-60
2023/02/28 10:08:16;;;;;;;15.25;11.07;;;1.60;73.10;;;;;;5019837;28;20079;-57
2023/02/28 10:10:48;;;;;;;16.92;11.35;;;1.70;72.60;;;;;;5019195;28;20509;-57
2023/02/28 10:13:40;;;;;;;18.30;11.25;;;1.70;72.70;;;;;;5019038;28;20026;-59
2023/02/28 10:16:15;;;;;;;16.73;10.60;;;1.70;72.70;;;;;;5019072;28;20037;-57
2023/02/28 10:18:47;;;;;;;20.58;11.60;;;1.70;72.60;;;;;;5018231;28;20033;-58
2023/02/28 10:21:27;;;;;;;19.17;11.88;;;1.70;72.60;;;;;;5019258;28;20037;-57
2023/02/28 10:24:11;;;;;;;18.10;12.27;;;1.80;72.50;;;;;;5019271;28;20072;-59
2023/02/28 10:26:36;;;;;;;19.38;12.18;;;1.80;72.70;;;;;;5018400;28;20040;-60
2023/02/28 10:29:03;;;;;;;21.95;12.82;;;1.80;72.70;;;;;;5019283;28;20034;-55
2023/02/28 10:31:29;;;;;;;21.58;12.45;;;1.80;72.70;;;;;;5018892;28;20450;-59
2023/02/28 10:33:55;;;;;;;17.48;12.13;;;1.80;72.70;;;;;;5019281;28;20128;-58
2023/02/28 10:36:21;;;;;;;25.35;14.88;;;1.80;72.60;;;;;;5018531;28;20200;-60
2023/02/28 10:38:47;;;;;;;48.95;28.05;;;1.90;72.70;;;;;;5018274;28;20034;-59
2023/02/28 10:41:28;;;;;;;19.45;13.18;;;1.90;72.70;;;;;;5015529;28;20072;-60
2023/02/28 10:44:20;;;;;;;17.65;11.55;;;1.90;72.70;;;;;;5017973;28;20057;-60
2023/02/28 10:46:46;;;;;;;19.73;11.70;;;1.90;72.60;;;;;;5017927;28;20505;-58
2023/02/28 10:49:25;;;;;;;17.33;11.70;;;2.00;72.70;;;;;;5017829;28;20076;-58
2023/02/28 10:51:56;;;;;;;17.73;11.52;;;2.00;72.40;;;;;;5018782;28;20037;-58
2023/02/28 10:54:37;;;;;;;17.08;11.05;;;2.10;72.40;;;;;;5018335;28;20022;-58
2023/02/28 10:57:09;;;;;;;16.55;11.43;;;2.10;72.20;;;;;;5018354;28;20037;-60
2023/02/28 10:59:35;;;;;;;16.85;11.85;;;2.10;72.20;;;;;;5017999;28;20022;-58
2023/02/28 11:02:00;;;;;;;19.60;11.52;;;2.10;72.10;;;;;;5017781;28;20468;-61
2023/02/28 11:04:29;;;;;;;18.38;11.45;;;2.20;72.10;;;;;;5018865;28;20113;-59
2023/02/28 11:07:22;;;;;;;18.95;11.18;;;2.20;72.10;;;;;;5017522;28;20340;-59
2023/02/28 11:09:53;;;;;;;17.20;10.98;;;2.20;71.70;;;;;;5031426;28;20498;-58
2023/02/28 11:12:34;;;;;;;16.48;11.55;;;2.20;71.90;;;;;;5019281;28;20033;-57
2023/02/28 11:15:27;;;;;;;16.15;10.93;;;2.20;71.80;;;;;;5016375;28;20034;-60
2023/02/28 11:17:58;;;;;;;15.20;11.05;;;2.20;71.70;;;;;;5013900;28;20025;-58
2023/02/28 11:20:26;;;;;;;16.25;11.25;;;2.20;71.90;;;;;;5018351;28;20057;-59
2023/02/28 11:22:52;;;;;;;17.15;11.40;;;2.30;72.00;;;;;;5018230;28;20038;-60
2023/02/28 11:25:24;;;;;;;18.20;11.48;;;2.30;72.00;;;;;;5018145;28;20022;-59
2023/02/28 11:27:52;;;;;;;16.83;11.80;;;2.40;71.90;;;;;;5018378;28;20033;-59
2023/02/28 11:30:30;;;;;;;19.48;12.45;;;2.40;71.90;;;;;;5017833;28;20405;-59
2023/02/28 11:32:56;;;;;;;17.27;11.82;;;2.40;71.70;;;;;;5016950;28;20033;-60
2023/02/28 11:35:37;;;;;;;16.48;11.52;;;2.40;71.90;;;;;;5025374;28;20030;-60
2023/02/28 11:38:05;;;;;;;21.65;12.23;;;2.40;71.90;;;;;;5017883;28;20251;-58
2023/02/28 11:40:58;;;;;;;18.27;12.07;;;2.50;72.00;;;;;;5017901;28;20030;-59
2023/02/28 11:43:35;;;;;;;17.60;10.93;;;2.50;71.90;;;;;;5011231;28;20421;-58
2023/02/28 11:46:21;;;;;;;17.00;11.15;;;2.60;72.00;;;;;;5017825;28;20037;-59
2023/02/28 11:49:05;;;;;;;16.05;11.30;;;2.60;71.90;;;;;;5016606;28;20532;-59
2023/02/28 11:51:34;;;;;;;18.70;11.27;;;2.70;72.00;;;;;;5017923;28;21244;-59
2023/02/28 11:54:00;;;;;;;16.35;10.88;;;2.70;71.80;;;;;;5017388;28;20026;-59
2023/02/28 11:56:29;;;;;;;17.10;12.02;;;2.80;71.90;;;;;;5018354;28;20025;-57
2023/02/28 11:59:08;;;;;;;16.35;11.52;;;2.90;71.90;;;;;;5016798;28;20096;-59
2023/02/28 12:02:17;;;;;;;17.67;11.63;;;2.90;71.30;;;;;;5017387;28;20025;-58
2023/02/28 12:05:11;;;;;;;17.35;11.38;;;2.90;70.60;;;;;;5016330;28;20042;-60
2023/02/28 12:08:22;;;;;;;17.70;10.73;;;2.90;70.50;;;;;;5018025;28;20433;-59
2023/02/28 12:11:11;;;;;;;16.58;11.57;;;2.90;70.40;;;;;;5014412;28;20083;-59
2023/02/28 12:14:03;;;;;;;16.42;10.63;;;2.90;70.50;;;;;;5017159;28;20061;-59
2023/02/28 12:16:38;;;;;;;18.65;11.70;;;2.90;70.30;;;;;;5017198;28;20393;-60
2023/02/28 12:19:32;;;;;;;17.42;12.00;;;2.90;70.70;;;;;;5017198;28;20108;-60
2023/02/28 12:22:09;;;;;;;19.88;12.07;;;2.90;70.60;;;;;;5017615;28;20425;-60
2023/02/28 12:25:05;;;;;;;21.02;13.35;;;2.90;71.00;;;;;;5016953;28;20060;-60
2023/02/28 12:27:36;;;;;;;20.20;13.00;;;2.90;70.90;;;;;;5017595;28;20403;-61
2023/02/28 12:30:13;;;;;;;20.13;12.52;;;2.90;71.20;;;;;;5016505;28;20476;-61
2023/02/28 12:32:47;;;;;;;18.55;12.82;;;2.90;71.20;;;;;;5016263;28;20105;-60
2023/02/28 12:35:14;;;;;;;16.30;11.67;;;2.90;71.20;;;;;;5016952;28;20474;-60
2023/02/28 12:38:19;;;;;;;16.95;12.55;;;2.90;71.20;;;;;;5016754;28;20527;-60
2023/02/28 12:41:01;;;;;;;22.17;14.88;;;3.00;70.90;;;;;;5016635;28;20476;-59
2023/02/28 12:43:38;;;;;;;18.38;12.88;;;3.00;71.00;;;;;;5017963;28;20048;-58
2023/02/28 12:46:19;;;;;;;18.33;11.35;;;3.00;70.80;;;;;;5021302;28;20037;-60
2023/02/28 12:48:52;;;;;;;19.63;12.38;;;3.00;70.70;;;;;;5020646;28;20512;-60
2023/02/28 12:51:19;;;;;;;17.65;12.35;;;3.00;71.00;;;;;;5021032;28;20041;-60
2023/02/28 12:54:04;;;;;;;20.08;12.13;;;3.10;71.00;;;;;;5021038;28;20038;-60
2023/02/28 12:56:39;;;;;;;19.10;12.27;;;3.10;70.70;;;;;;5020322;28;20057;-60
2023/02/28 12:59:16;;;;;;;17.45;11.77;;;3.10;70.90;;;;;;5021202;28;20026;-60
2023/02/28 13:02:06;;;;;;;18.45;12.00;;;3.10;71.00;;;;;;5020287;28;20042;-59
2023/02/28 13:04:50;;;;;;;17.70;12.35;;;3.20;70.90;;;;;;5019883;28;20041;-60
2023/02/28 13:07:38;;;;;;;18.42;11.90;;;3.20;71.00;;;;;;5020563;28;20030;-60